sensor_id;sensor_type;location;lat;lon;timestamp;pressure;altitude;pressure_sealevel;temperature;humidity
38688;BME280;24444;53.216;-6.664;2022-11-02T00:00:25;99709.50;;;1.31;98.60
38688;BME280;24444;53.216;-6.664;2022-11-02T00:02:52;99706.77;;;1.20;98.34
38688;BME280;24444;53.216;-6.664;2022-11-02T00:05:19;99709.00;;;0.58;98.32
38688;BME280;24444;53.216;-6.664;2022-11-02T00:07:47;99715.45;;;0.55;99.35
38688;BME280;24444;53.216;-6.664;2022-11-02T00:10:14;99715.63;;;0.90;98.65
38688;BME280;24444;53.216;-6.664;2022-11-02T00:12:41;99717.83;;;0.38;99.69
38688;BME280;24444;53.216;-6.664;2022-11-02T00:15:09;99720.18;;;1.33;99.43
38688;BME280;24444;53.216;-6.664;2022-11-02T00:17:38;99722.38;;;0.51;100.00
38688;BME280;24444;53.216;-6.664;2022-11-02T00:20:07;99725.13;;;1.25;99.70
38688;BME280;24444;53.216;-6.664;2022-11-02T00:22:35;99729.86;;;0.87;98.39
38688;BME280;24444;53.216;-6.664;2022-11-02T00:25:05;99729.43;;;0.65;98.68
38688;BME280;24444;53.216;-6.664;2022-11-02T00:27:33;99739.75;;;0.60;98.87
38688;BME280;24444;53.216;-6.664;2022-11-02T00:30:01;99741.04;;;0.36;99.55
38688;BME280;24444;53.216;-6.664;2022-11-02T00:32:28;99743.45;;;0.72;98.69
38688;BME280;24444;53.216;-6.664;2022-11-02T00:34:56;99748.26;;;0.33;99.53
38688;BME280;24444;53.216;-6.664;2022-11-02T00:37:23;99746.59;;;0.89;99.21
38688;BME280;24444;53.216;-6.664;2022-11-02T00:39:50;99746.56;;;0.53;99.47
38688;BME280;24444;53.216;-6.664;2022-11-02T00:42:18;99738.13;;;0.83;99.24
38688;BME280;24444;53.216;-6.664;2022-11-02T00:44:45;99744.26;;;0.33;99.36
38688;BME280;24444;53.216;-6.664;2022-11-02T00:47:12;99746.88;;;0.75;99.21
38688;BME280;24444;53.216;-6.664;2022-11-02T00:49:39;99745.24;;;0.80;98.67
38688;BME280;24444;53.216;-6.664;2022-11-02T00:52:06;99749.71;;;0.58;98.94
38688;BME280;24444;53.216;-6.664;2022-11-02T00:54:33;99758.32;;;0.51;98.63
38688;BME280;24444;53.216;-6.664;2022-11-02T00:57:00;99759.96;;;0.54;98.41
38688;BME280;24444;53.216;-6.664;2022-11-02T00:59:27;99759.19;;;0.78;97.67
38688;BME280;24444;53.216;-6.664;2022-11-02T01:01:54;99753.02;;;0.91;98.42
38688;BME280;24444;53.216;-6.664;2022-11-02T01:04:21;99761.15;;;1.06;96.94
38688;BME280;24444;53.216;-6.664;2022-11-02T01:06:48;99770.06;;;1.31;95.69
38688;BME280;24444;53.216;-6.664;2022-11-02T01:09:15;99756.89;;;1.07;95.97
38688;BME280;24444;53.216;-6.664;2022-11-02T01:11:42;99753.95;;;1.29;96.40
38688;BME280;24444;53.216;-6.664;2022-11-02T01:14:10;99757.40;;;1.23;95.82
38688;BME280;24444;53.216;-6.664;2022-11-02T01:16:38;99750.48;;;1.08;95.45
38688;BME280;24444;53.216;-6.664;2022-11-02T01:19:07;99747.45;;;0.85;96.39
38688;BME280;24444;53.216;-6.664;2022-11-02T01:21:34;99745.71;;;0.57;97.06
38688;BME280;24444;53.216;-6.664;2022-11-02T01:24:02;99750.83;;;0.22;97.86
38688;BME280;24444;53.216;-6.664;2022-11-02T01:26:30;99754.13;;;0.77;97.10
38688;BME280;24444;53.216;-6.664;2022-11-02T01:28:57;99747.80;;;1.12;96.30
38688;BME280;24444;53.216;-6.664;2022-11-02T01:31:25;99748.28;;;1.14;95.99
38688;BME280;24444;53.216;-6.664;2022-11-02T01:33:53;99739.10;;;0.46;96.48
38688;BME280;24444;53.216;-6.664;2022-11-02T01:36:20;99738.70;;;0.77;96.58
38688;BME280;24444;53.216;-6.664;2022-11-02T01:38:48;99740.87;;;0.64;95.15
38688;BME280;24444;53.216;-6.664;2022-11-02T01:41:16;99738.48;;;0.88;93.84
38688;BME280;24444;53.216;-6.664;2022-11-02T01:43:44;99735.81;;;1.15;93.12
38688;BME280;24444;53.216;-6.664;2022-11-02T01:46:16;99735.00;;;1.11;93.18
38688;BME280;24444;53.216;-6.664;2022-11-02T01:48:48;99734.62;;;0.83;95.34
38688;BME280;24444;53.216;-6.664;2022-11-02T01:51:20;99729.88;;;1.58;92.07
38688;BME280;24444;53.216;-6.664;2022-11-02T01:53:50;99721.14;;;1.34;91.16
38688;BME280;24444;53.216;-6.664;2022-11-02T01:56:22;99722.14;;;1.24;91.81
38688;BME280;24444;53.216;-6.664;2022-11-02T01:58:55;99724.27;;;1.31;91.26
38688;BME280;24444;53.216;-6.664;2022-11-02T02:01:23;99728.98;;;1.33;91.01
38688;BME280;24444;53.216;-6.664;2022-11-02T02:03:51;99735.96;;;0.29;93.96
38688;BME280;24444;53.216;-6.664;2022-11-02T02:06:19;99735.90;;;0.62;93.90
38688;BME280;24444;53.216;-6.664;2022-11-02T02:08:49;99735.75;;;0.03;93.94
38688;BME280;24444;53.216;-6.664;2022-11-02T02:11:25;99730.25;;;0.64;96.32
38688;BME280;24444;53.216;-6.664;2022-11-02T02:13:53;99723.51;;;0.81;94.86
38688;BME280;24444;53.216;-6.664;2022-11-02T02:16:31;99724.38;;;0.57;92.99
38688;BME280;24444;53.216;-6.664;2022-11-02T02:19:09;99721.45;;;1.12;93.26
38688;BME280;24444;53.216;-6.664;2022-11-02T02:21:51;99719.96;;;1.08;94.77
38688;BME280;24444;53.216;-6.664;2022-11-02T02:24:35;99716.56;;;0.66;96.14
38688;BME280;24444;53.216;-6.664;2022-11-02T02:27:14;99702.60;;;0.74;97.37
38688;BME280;24444;53.216;-6.664;2022-11-02T02:29:52;99696.45;;;0.79;96.89
38688;BME280;24444;53.216;-6.664;2022-11-02T02:32:29;99692.99;;;0.39;96.72
38688;BME280;24444;53.216;-6.664;2022-11-02T02:35:10;99692.17;;;1.27;95.47
38688;BME280;24444;53.216;-6.664;2022-11-02T02:37:42;99686.95;;;0.52;95.25
38688;BME280;24444;53.216;-6.664;2022-11-02T02:40:15;99683.60;;;0.68;95.19
38688;BME280;24444;53.216;-6.664;2022-11-02T02:42:47;99687.71;;;0.82;93.78
38688;BME280;24444;53.216;-6.664;2022-11-02T02:45:22;99678.16;;;0.45;95.31
38688;BME280;24444;53.216;-6.664;2022-11-02T02:48:02;99669.53;;;0.70;95.65
38688;BME280;24444;53.216;-6.664;2022-11-02T02:50:36;99666.02;;;0.14;96.66
38688;BME280;24444;53.216;-6.664;2022-11-02T02:53:07;99656.68;;;1.59;95.24
38688;BME280;24444;53.216;-6.664;2022-11-02T02:55:38;99651.83;;;1.16;93.54
38688;BME280;24444;53.216;-6.664;2022-11-02T02:58:12;99651.15;;;0.68;94.12
38688;BME280;24444;53.216;-6.664;2022-11-02T03:00:41;99653.40;;;1.04;93.64
38688;BME280;24444;53.216;-6.664;2022-11-02T03:03:14;99655.29;;;0.68;93.90
38688;BME280;24444;53.216;-6.664;2022-11-02T03:05:42;99668.81;;;1.09;94.37
38688;BME280;24444;53.216;-6.664;2022-11-02T03:08:11;99664.66;;;0.48;94.62
38688;BME280;24444;53.216;-6.664;2022-11-02T03:10:43;99670.77;;;0.49;94.86
38688;BME280;24444;53.216;-6.664;2022-11-02T03:13:27;99662.70;;;0.51;96.01
38688;BME280;24444;53.216;-6.664;2022-11-02T03:16:03;99655.66;;;1.17;94.95
38688;BME280;24444;53.216;-6.664;2022-11-02T03:18:40;99652.55;;;0.94;94.57
38688;BME280;24444;53.216;-6.664;2022-11-02T03:21:19;99649.21;;;1.09;94.38
38688;BME280;24444;53.216;-6.664;2022-11-02T03:23:53;99641.70;;;1.67;92.95
38688;BME280;24444;53.216;-6.664;2022-11-02T03:26:27;99638.11;;;1.14;93.42
38688;BME280;24444;53.216;-6.664;2022-11-02T03:29:00;99625.18;;;1.17;92.95
38688;BME280;24444;53.216;-6.664;2022-11-02T03:31:35;99616.62;;;1.98;92.36
38688;BME280;24444;53.216;-6.664;2022-11-02T03:34:13;99612.97;;;1.72;92.60
38688;BME280;24444;53.216;-6.664;2022-11-02T03:36:45;99610.56;;;1.28;92.69
38688;BME280;24444;53.216;-6.664;2022-11-02T03:39:16;99602.24;;;1.12;94.41
38688;BME280;24444;53.216;-6.664;2022-11-02T03:41:45;99606.85;;;1.10;95.76
38688;BME280;24444;53.216;-6.664;2022-11-02T03:44:18;99601.79;;;0.98;96.59
38688;BME280;24444;53.216;-6.664;2022-11-02T03:46:49;99597.79;;;1.36;96.64
38688;BME280;24444;53.216;-6.664;2022-11-02T03:49:19;99589.04;;;1.13;96.68
38688;BME280;24444;53.216;-6.664;2022-11-02T03:51:48;99590.00;;;1.37;96.32
38688;BME280;24444;53.216;-6.664;2022-11-02T03:54:21;99591.98;;;1.12;96.63
38688;BME280;24444;53.216;-6.664;2022-11-02T03:56:55;99592.06;;;1.46;96.11
38688;BME280;24444;53.216;-6.664;2022-11-02T03:59:24;99590.59;;;1.76;94.44
38688;BME280;24444;53.216;-6.664;2022-11-02T04:01:52;99584.81;;;2.18;92.78
38688;BME280;24444;53.216;-6.664;2022-11-02T04:04:19;99582.77;;;1.55;92.53
38688;BME280;24444;53.216;-6.664;2022-11-02T04:06:47;99578.34;;;1.91;91.90
38688;BME280;24444;53.216;-6.664;2022-11-02T04:09:15;99572.68;;;1.97;91.87
38688;BME280;24444;53.216;-6.664;2022-11-02T04:11:42;99572.11;;;2.66;91.35
38688;BME280;24444;53.216;-6.664;2022-11-02T04:14:09;99556.20;;;2.23;92.52
38688;BME280;24444;53.216;-6.664;2022-11-02T04:16:37;99558.87;;;1.92;93.14
38688;BME280;24444;53.216;-6.664;2022-11-02T04:19:05;99553.91;;;2.54;93.25
38688;BME280;24444;53.216;-6.664;2022-11-02T04:21:32;99563.74;;;2.32;92.54
38688;BME280;24444;53.216;-6.664;2022-11-02T04:23:59;99561.15;;;2.45;93.79
38688;BME280;24444;53.216;-6.664;2022-11-02T04:26:26;99563.02;;;2.31;93.44
38688;BME280;24444;53.216;-6.664;2022-11-02T04:28:53;99571.60;;;1.66;93.87
38688;BME280;24444;53.216;-6.664;2022-11-02T04:31:20;99569.87;;;2.29;93.13
38688;BME280;24444;53.216;-6.664;2022-11-02T04:33:47;99569.18;;;2.80;93.68
38688;BME280;24444;53.216;-6.664;2022-11-02T04:36:14;99568.48;;;2.42;93.52
38688;BME280;24444;53.216;-6.664;2022-11-02T04:38:41;99563.23;;;2.82;92.68
38688;BME280;24444;53.216;-6.664;2022-11-02T04:41:10;99564.00;;;2.72;93.14
38688;BME280;24444;53.216;-6.664;2022-11-02T04:43:38;99564.09;;;3.12;94.12
38688;BME280;24444;53.216;-6.664;2022-11-02T04:46:05;99561.75;;;2.51;95.08
38688;BME280;24444;53.216;-6.664;2022-11-02T04:48:32;99551.69;;;3.06;94.36
38688;BME280;24444;53.216;-6.664;2022-11-02T04:50:59;99549.40;;;2.96;94.16
38688;BME280;24444;53.216;-6.664;2022-11-02T04:53:26;99539.96;;;2.88;93.98
38688;BME280;24444;53.216;-6.664;2022-11-02T04:55:53;99542.58;;;3.14;94.28
38688;BME280;24444;53.216;-6.664;2022-11-02T04:58:21;99543.64;;;2.74;96.08
38688;BME280;24444;53.216;-6.664;2022-11-02T05:00:48;99545.58;;;3.17;96.98
38688;BME280;24444;53.216;-6.664;2022-11-02T05:03:14;99545.71;;;3.26;97.99
38688;BME280;24444;53.216;-6.664;2022-11-02T05:05:41;99538.38;;;2.70;100.00
38688;BME280;24444;53.216;-6.664;2022-11-02T05:08:09;99537.84;;;2.50;100.00
38688;BME280;24444;53.216;-6.664;2022-11-02T05:10:37;99533.16;;;2.94;100.00
38688;BME280;24444;53.216;-6.664;2022-11-02T05:13:04;99533.50;;;2.66;100.00
38688;BME280;24444;53.216;-6.664;2022-11-02T05:15:32;99519.66;;;2.61;100.00
38688;BME280;24444;53.216;-6.664;2022-11-02T05:17:59;99519.80;;;3.42;100.00
38688;BME280;24444;53.216;-6.664;2022-11-02T05:20:26;99517.03;;;3.33;100.00
38688;BME280;24444;53.216;-6.664;2022-11-02T05:22:53;99525.26;;;3.23;100.00
38688;BME280;24444;53.216;-6.664;2022-11-02T05:25:20;99530.84;;;3.28;100.00
38688;BME280;24444;53.216;-6.664;2022-11-02T05:27:47;99536.69;;;3.08;100.00
38688;BME280;24444;53.216;-6.664;2022-11-02T05:30:14;99530.99;;;2.69;100.00
38688;BME280;24444;53.216;-6.664;2022-11-02T05:32:42;99515.84;;;3.33;100.00
38688;BME280;24444;53.216;-6.664;2022-11-02T05:35:09;99504.19;;;3.38;100.00
38688;BME280;24444;53.216;-6.664;2022-11-02T05:37:36;99491.51;;;3.23;100.00
38688;BME280;24444;53.216;-6.664;2022-11-02T05:40:04;99489.33;;;3.51;100.00
38688;BME280;24444;53.216;-6.664;2022-11-02T05:42:31;99456.51;;;3.10;100.00
38688;BME280;24444;53.216;-6.664;2022-11-02T05:44:59;99448.51;;;3.46;100.00
38688;BME280;24444;53.216;-6.664;2022-11-02T05:47:26;99422.58;;;3.06;100.00
38688;BME280;24444;53.216;-6.664;2022-11-02T05:49:54;99410.70;;;3.38;100.00
38688;BME280;24444;53.216;-6.664;2022-11-02T05:52:21;99425.23;;;3.08;100.00
38688;BME280;24444;53.216;-6.664;2022-11-02T05:54:48;99413.52;;;3.50;100.00
38688;BME280;24444;53.216;-6.664;2022-11-02T05:57:16;99407.79;;;3.82;100.00
38688;BME280;24444;53.216;-6.664;2022-11-02T05:59:43;99404.23;;;3.43;100.00
38688;BME280;24444;53.216;-6.664;2022-11-02T06:02:11;99404.81;;;3.29;100.00
38688;BME280;24444;53.216;-6.664;2022-11-02T06:04:38;99397.33;;;3.80;100.00
38688;BME280;24444;53.216;-6.664;2022-11-02T06:07:05;99397.62;;;3.77;100.00
38688;BME280;24444;53.216;-6.664;2022-11-02T06:09:32;99383.43;;;3.84;100.00
38688;BME280;24444;53.216;-6.664;2022-11-02T06:11:59;99365.41;;;3.80;100.00
38688;BME280;24444;53.216;-6.664;2022-11-02T06:14:26;99363.80;;;3.55;100.00
38688;BME280;24444;53.216;-6.664;2022-11-02T06:16:53;99355.61;;;3.62;100.00
38688;BME280;24444;53.216;-6.664;2022-11-02T06:19:20;99341.32;;;3.55;100.00
38688;BME280;24444;53.216;-6.664;2022-11-02T06:21:47;99332.58;;;3.88;100.00
38688;BME280;24444;53.216;-6.664;2022-11-02T06:24:14;99319.90;;;3.43;100.00
38688;BME280;24444;53.216;-6.664;2022-11-02T06:26:42;99296.18;;;4.32;100.00
38688;BME280;24444;53.216;-6.664;2022-11-02T06:29:09;99278.09;;;3.87;100.00
38688;BME280;24444;53.216;-6.664;2022-11-02T06:31:36;99274.22;;;4.19;100.00
38688;BME280;24444;53.216;-6.664;2022-11-02T06:34:03;99267.08;;;4.68;100.00
38688;BME280;24444;53.216;-6.664;2022-11-02T06:36:30;99262.93;;;4.50;100.00
38688;BME280;24444;53.216;-6.664;2022-11-02T06:38:57;99246.43;;;3.91;100.00
38688;BME280;24444;53.216;-6.664;2022-11-02T06:41:24;99245.77;;;4.38;100.00
38688;BME280;24444;53.216;-6.664;2022-11-02T06:43:51;99226.36;;;4.08;100.00
38688;BME280;24444;53.216;-6.664;2022-11-02T06:46:18;99225.54;;;4.10;100.00
38688;BME280;24444;53.216;-6.664;2022-11-02T06:48:46;99218.83;;;4.75;100.00
38688;BME280;24444;53.216;-6.664;2022-11-02T06:51:13;99213.23;;;4.60;100.00
38688;BME280;24444;53.216;-6.664;2022-11-02T06:53:41;99217.99;;;4.88;100.00
38688;BME280;24444;53.216;-6.664;2022-11-02T06:56:08;99196.65;;;4.40;100.00
38688;BME280;24444;53.216;-6.664;2022-11-02T06:58:36;99203.29;;;4.99;100.00
38688;BME280;24444;53.216;-6.664;2022-11-02T07:01:05;99197.13;;;4.76;100.00
38688;BME280;24444;53.216;-6.664;2022-11-02T07:03:34;99180.17;;;4.67;100.00
38688;BME280;24444;53.216;-6.664;2022-11-02T07:06:02;99178.02;;;5.03;100.00
38688;BME280;24444;53.216;-6.664;2022-11-02T07:08:29;99165.19;;;4.74;100.00
38688;BME280;24444;53.216;-6.664;2022-11-02T07:10:57;99167.06;;;4.78;100.00
38688;BME280;24444;53.216;-6.664;2022-11-02T07:13:24;99163.49;;;5.08;100.00
38688;BME280;24444;53.216;-6.664;2022-11-02T07:15:52;99154.54;;;5.10;100.00
38688;BME280;24444;53.216;-6.664;2022-11-02T07:18:19;99151.52;;;5.03;100.00
38688;BME280;24444;53.216;-6.664;2022-11-02T07:20:47;99148.51;;;4.60;100.00
38688;BME280;24444;53.216;-6.664;2022-11-02T07:23:14;99149.47;;;4.66;100.00
38688;BME280;24444;53.216;-6.664;2022-11-02T07:25:41;99156.04;;;4.94;100.00
38688;BME280;24444;53.216;-6.664;2022-11-02T07:28:08;99147.17;;;5.17;100.00
38688;BME280;24444;53.216;-6.664;2022-11-02T07:30:35;99121.55;;;5.41;100.00
38688;BME280;24444;53.216;-6.664;2022-11-02T07:33:02;99109.14;;;4.83;100.00
38688;BME280;24444;53.216;-6.664;2022-11-02T07:35:30;99112.85;;;5.05;100.00
38688;BME280;24444;53.216;-6.664;2022-11-02T07:37:59;99097.07;;;4.77;100.00
38688;BME280;24444;53.216;-6.664;2022-11-02T07:40:28;99095.99;;;4.77;100.00
38688;BME280;24444;53.216;-6.664;2022-11-02T07:42:55;99108.18;;;4.94;100.00
38688;BME280;24444;53.216;-6.664;2022-11-02T07:45:23;99084.04;;;4.90;100.00
38688;BME280;24444;53.216;-6.664;2022-11-02T07:47:50;99082.97;;;4.91;100.00
38688;BME280;24444;53.216;-6.664;2022-11-02T07:50:20;99068.90;;;4.86;100.00
38688;BME280;24444;53.216;-6.664;2022-11-02T07:52:49;99069.40;;;5.05;100.00
38688;BME280;24444;53.216;-6.664;2022-11-02T07:55:17;99053.56;;;4.97;100.00
38688;BME280;24444;53.216;-6.664;2022-11-02T07:57:52;99045.28;;;4.46;100.00
38688;BME280;24444;53.216;-6.664;2022-11-02T08:00:20;99047.60;;;4.60;100.00
38688;BME280;24444;53.216;-6.664;2022-11-02T08:02:48;99029.57;;;4.81;100.00
38688;BME280;24444;53.216;-6.664;2022-11-02T08:05:15;99020.88;;;5.36;100.00
38688;BME280;24444;53.216;-6.664;2022-11-02T08:07:42;99018.82;;;4.49;100.00
38688;BME280;24444;53.216;-6.664;2022-11-02T08:10:10;98992.27;;;4.91;100.00
38688;BME280;24444;53.216;-6.664;2022-11-02T08:12:37;98993.60;;;4.78;100.00
38688;BME280;24444;53.216;-6.664;2022-11-02T08:15:06;98990.62;;;4.96;100.00
38688;BME280;24444;53.216;-6.664;2022-11-02T08:17:33;98992.25;;;4.84;100.00
38688;BME280;24444;53.216;-6.664;2022-11-02T08:20:00;98985.41;;;4.52;100.00
38688;BME280;24444;53.216;-6.664;2022-11-02T08:22:27;98987.01;;;5.02;100.00
38688;BME280;24444;53.216;-6.664;2022-11-02T08:24:55;98979.72;;;4.39;100.00
38688;BME280;24444;53.216;-6.664;2022-11-02T08:27:22;98975.91;;;4.69;100.00
38688;BME280;24444;53.216;-6.664;2022-11-02T08:29:50;98965.97;;;5.15;100.00
38688;BME280;24444;53.216;-6.664;2022-11-02T08:32:17;98948.67;;;5.04;100.00
38688;BME280;24444;53.216;-6.664;2022-11-02T08:34:44;98947.73;;;4.79;100.00
38688;BME280;24444;53.216;-6.664;2022-11-02T08:37:12;98945.82;;;4.85;100.00
38688;BME280;24444;53.216;-6.664;2022-11-02T08:39:39;98934.53;;;4.40;100.00
38688;BME280;24444;53.216;-6.664;2022-11-02T08:42:06;98929.32;;;4.84;100.00
38688;BME280;24444;53.216;-6.664;2022-11-02T08:44:34;98913.62;;;4.84;100.00
38688;BME280;24444;53.216;-6.664;2022-11-02T08:47:01;98901.42;;;5.23;100.00
38688;BME280;24444;53.216;-6.664;2022-11-02T08:49:28;98889.13;;;4.65;100.00
38688;BME280;24444;53.216;-6.664;2022-11-02T08:51:56;98883.64;;;4.61;100.00
38688;BME280;24444;53.216;-6.664;2022-11-02T08:54:23;98876.33;;;5.15;100.00
38688;BME280;24444;53.216;-6.664;2022-11-02T08:56:50;98860.30;;;5.26;100.00
38688;BME280;24444;53.216;-6.664;2022-11-02T08:59:18;98856.42;;;5.23;100.00
38688;BME280;24444;53.216;-6.664;2022-11-02T09:01:45;98866.42;;;4.95;100.00
38688;BME280;24444;53.216;-6.664;2022-11-02T09:04:13;98850.71;;;5.00;100.00
38688;BME280;24444;53.216;-6.664;2022-11-02T09:06:40;98845.07;;;4.91;100.00
38688;BME280;24444;53.216;-6.664;2022-11-02T09:09:07;98839.03;;;5.06;100.00
38688;BME280;24444;53.216;-6.664;2022-11-02T09:11:34;98835.77;;;5.18;100.00
38688;BME280;24444;53.216;-6.664;2022-11-02T09:14:01;98830.45;;;5.36;100.00
38688;BME280;24444;53.216;-6.664;2022-11-02T09:16:29;98816.49;;;5.39;100.00
38688;BME280;24444;53.216;-6.664;2022-11-02T09:18:56;98811.09;;;5.44;100.00
38688;BME280;24444;53.216;-6.664;2022-11-02T09:21:24;98790.21;;;5.85;100.00
38688;BME280;24444;53.216;-6.664;2022-11-02T09:23:50;98794.11;;;5.40;100.00
38688;BME280;24444;53.216;-6.664;2022-11-02T09:26:17;98793.08;;;5.65;100.00
38688;BME280;24444;53.216;-6.664;2022-11-02T09:28:45;98770.46;;;5.43;100.00
38688;BME280;24444;53.216;-6.664;2022-11-02T09:31:12;98752.54;;;5.51;100.00
38688;BME280;24444;53.216;-6.664;2022-11-02T09:33:39;98730.53;;;5.89;100.00
38688;BME280;24444;53.216;-6.664;2022-11-02T09:36:07;98726.88;;;6.17;100.00
38688;BME280;24444;53.216;-6.664;2022-11-02T09:38:34;98710.01;;;5.53;100.00
38688;BME280;24444;53.216;-6.664;2022-11-02T09:41:09;98699.77;;;5.22;100.00
38688;BME280;24444;53.216;-6.664;2022-11-02T09:43:46;98685.80;;;5.54;100.00
38688;BME280;24444;53.216;-6.664;2022-11-02T09:46:18;98666.05;;;5.51;100.00
38688;BME280;24444;53.216;-6.664;2022-11-02T09:48:51;98648.88;;;5.76;100.00
38688;BME280;24444;53.216;-6.664;2022-11-02T09:51:21;98656.73;;;5.84;100.00
38688;BME280;24444;53.216;-6.664;2022-11-02T09:53:57;98632.06;;;6.46;100.00
38688;BME280;24444;53.216;-6.664;2022-11-02T09:56:26;98618.29;;;5.80;100.00
38688;BME280;24444;53.216;-6.664;2022-11-02T09:58:57;98628.43;;;5.26;100.00
38688;BME280;24444;53.216;-6.664;2022-11-02T10:01:36;98624.03;;;5.80;100.00
38688;BME280;24444;53.216;-6.664;2022-11-02T10:04:18;98600.75;;;6.18;100.00
38688;BME280;24444;53.216;-6.664;2022-11-02T10:06:52;98591.22;;;5.83;100.00
38688;BME280;24444;53.216;-6.664;2022-11-02T10:09:25;98577.93;;;5.85;100.00
38688;BME280;24444;53.216;-6.664;2022-11-02T10:11:59;98566.67;;;5.61;100.00
38688;BME280;24444;53.216;-6.664;2022-11-02T10:14:33;98590.13;;;5.40;100.00
38688;BME280;24444;53.216;-6.664;2022-11-02T10:17:09;98574.98;;;5.72;100.00
38688;BME280;24444;53.216;-6.664;2022-11-02T10:19:40;98557.96;;;5.56;100.00
38688;BME280;24444;53.216;-6.664;2022-11-02T10:22:14;98550.87;;;5.56;100.00
38688;BME280;24444;53.216;-6.664;2022-11-02T10:24:43;98541.58;;;5.64;100.00
38688;BME280;24444;53.216;-6.664;2022-11-02T10:27:15;98516.27;;;5.83;100.00
38688;BME280;24444;53.216;-6.664;2022-11-02T10:29:51;98505.43;;;5.96;100.00
38688;BME280;24444;53.216;-6.664;2022-11-02T10:32:21;98494.54;;;5.87;100.00
38688;BME280;24444;53.216;-6.664;2022-11-02T10:34:49;98476.00;;;6.08;100.00
38688;BME280;24444;53.216;-6.664;2022-11-02T10:37:27;98475.55;;;6.20;100.00
38688;BME280;24444;53.216;-6.664;2022-11-02T10:40:06;98476.89;;;5.62;100.00
38688;BME280;24444;53.216;-6.664;2022-11-02T10:42:51;98474.75;;;6.17;100.00
38688;BME280;24444;53.216;-6.664;2022-11-02T10:46:10;98455.67;;;5.83;100.00
38688;BME280;24444;53.216;-6.664;2022-11-02T10:48:50;98465.32;;;5.50;100.00
38688;BME280;24444;53.216;-6.664;2022-11-02T10:51:22;98453.46;;;5.33;100.00
38688;BME280;24444;53.216;-6.664;2022-11-02T10:53:51;98424.25;;;5.04;100.00
38688;BME280;24444;53.216;-6.664;2022-11-02T10:56:20;98451.11;;;5.38;100.00
38688;BME280;24444;53.216;-6.664;2022-11-02T10:58:54;98436.29;;;5.46;100.00
38688;BME280;24444;53.216;-6.664;2022-11-02T11:01:26;98446.51;;;5.47;100.00
38688;BME280;24444;53.216;-6.664;2022-11-02T11:03:56;98442.28;;;5.74;100.00
38688;BME280;24444;53.216;-6.664;2022-11-02T11:06:27;98420.23;;;5.37;100.00
38688;BME280;24444;53.216;-6.664;2022-11-02T11:09:04;98404.87;;;4.84;100.00
38688;BME280;24444;53.216;-6.664;2022-11-02T11:11:33;98381.72;;;5.77;100.00
38688;BME280;24444;53.216;-6.664;2022-11-02T11:14:03;98365.14;;;5.76;100.00
38688;BME280;24444;53.216;-6.664;2022-11-02T11:16:36;98352.54;;;5.91;100.00
38688;BME280;24444;53.216;-6.664;2022-11-02T11:19:06;98341.04;;;5.51;100.00
38688;BME280;24444;53.216;-6.664;2022-11-02T11:21:42;98339.76;;;5.56;100.00
38688;BME280;24444;53.216;-6.664;2022-11-02T11:24:20;98337.37;;;5.54;100.00
38688;BME280;24444;53.216;-6.664;2022-11-02T11:27:21;98336.49;;;5.81;100.00
38688;BME280;24444;53.216;-6.664;2022-11-02T11:29:52;98314.36;;;5.84;100.00
38688;BME280;24444;53.216;-6.664;2022-11-02T11:32:22;98302.14;;;5.71;100.00
38688;BME280;24444;53.216;-6.664;2022-11-02T11:34:55;98321.57;;;6.01;100.00
38688;BME280;24444;53.216;-6.664;2022-11-02T11:37:29;98333.13;;;6.25;100.00
38688;BME280;24444;53.216;-6.664;2022-11-02T11:39:59;98342.01;;;5.48;100.00
38688;BME280;24444;53.216;-6.664;2022-11-02T11:42:29;98316.69;;;5.63;100.00
38688;BME280;24444;53.216;-6.664;2022-11-02T11:45:02;98350.42;;;5.77;100.00
38688;BME280;24444;53.216;-6.664;2022-11-02T11:47:34;98341.86;;;5.95;100.00
38688;BME280;24444;53.216;-6.664;2022-11-02T11:50:04;98313.45;;;5.61;100.00
38688;BME280;24444;53.216;-6.664;2022-11-02T11:52:32;98322.34;;;5.98;100.00
38688;BME280;24444;53.216;-6.664;2022-11-02T11:55:18;98318.50;;;5.76;100.00
38688;BME280;24444;53.216;-6.664;2022-11-02T11:58:03;98308.22;;;6.22;100.00
38688;BME280;24444;53.216;-6.664;2022-11-02T12:00:30;98300.77;;;5.48;100.00
38688;BME280;24444;53.216;-6.664;2022-11-02T12:03:02;98285.82;;;5.81;100.00
38688;BME280;24444;53.216;-6.664;2022-11-02T12:05:30;98300.04;;;5.72;100.00
38688;BME280;24444;53.216;-6.664;2022-11-02T12:08:18;98272.30;;;5.27;100.00
38688;BME280;24444;53.216;-6.664;2022-11-02T12:11:01;98259.72;;;6.01;100.00
38688;BME280;24444;53.216;-6.664;2022-11-02T12:13:49;98267.58;;;6.03;100.00
38688;BME280;24444;53.216;-6.664;2022-11-02T12:16:28;98269.94;;;6.22;100.00
38688;BME280;24444;53.216;-6.664;2022-11-02T12:19:11;98284.65;;;6.41;100.00
38688;BME280;24444;53.216;-6.664;2022-11-02T12:21:52;98298.88;;;6.36;100.00
38688;BME280;24444;53.216;-6.664;2022-11-02T12:24:52;98315.17;;;6.68;100.00
38688;BME280;24444;53.216;-6.664;2022-11-02T12:27:33;98312.23;;;6.57;100.00
38688;BME280;24444;53.216;-6.664;2022-11-02T12:30:12;98300.36;;;7.11;100.00
38688;BME280;24444;53.216;-6.664;2022-11-02T12:32:48;98316.06;;;6.93;100.00
38688;BME280;24444;53.216;-6.664;2022-11-02T12:35:29;98323.20;;;7.09;100.00
38688;BME280;24444;53.216;-6.664;2022-11-02T12:38:12;98328.60;;;6.99;100.00
38688;BME280;24444;53.216;-6.664;2022-11-02T12:40:53;98337.78;;;7.00;100.00
38688;BME280;24444;53.216;-6.664;2022-11-02T12:43:41;98327.48;;;7.36;100.00
38688;BME280;24444;53.216;-6.664;2022-11-02T12:46:21;98328.72;;;7.41;100.00
38688;BME280;24444;53.216;-6.664;2022-11-02T12:49:00;98320.46;;;7.21;100.00
38688;BME280;24444;53.216;-6.664;2022-11-02T12:51:35;98311.65;;;7.13;100.00
38688;BME280;24444;53.216;-6.664;2022-11-02T12:54:10;98307.15;;;6.96;100.00
38688;BME280;24444;53.216;-6.664;2022-11-02T12:56:44;98299.53;;;7.75;100.00
38688;BME280;24444;53.216;-6.664;2022-11-02T12:59:16;98292.23;;;7.19;100.00
38688;BME280;24444;53.216;-6.664;2022-11-02T13:01:46;98296.61;;;7.44;100.00
38688;BME280;24444;53.216;-6.664;2022-11-02T13:04:19;98301.48;;;6.52;100.00
38688;BME280;24444;53.216;-6.664;2022-11-02T13:06:49;98283.68;;;7.35;100.00
38688;BME280;24444;53.216;-6.664;2022-11-02T13:09:22;98277.47;;;7.03;100.00